Terminal Aerodrome Forecast
Issued by NWS Cleveland, OH

Home | Current Version | Previous Version | Graphics & Text | Print | Product List | Glossary On
Versions: 1 2 3 4 5 6 7 8 9 10 11 12 13 14 15 16 17 18 19 20 21 22 23 24
943
FTUS41 KCLE 281738
TAFCAK
TAF
KCAK 281738Z 2818/2918 01010KT 4SM BR SCT005 OVC012
      TEMPO 2818/2820 2SM -DZ BR OVC004
     FM282200 35010KT P6SM OVC015
     FM290300 35008KT P6SM OVC008
     FM290700 01005KT 5SM BR OVC006
     FM291400 03006KT P6SM BKN012=

USA.gov is the U.S. government's official web portal to all federal, state and local government web resources and services.